Time;durP1;ratioP1;P1;durP2;ratioP2;P2;SDS_P1;SDS_P2;PMS_P1;PMS_P2;Temp;Humidity;BMP_temperature;BMP_pressure;BME280_temperature;BME280_humidity;BME280_pressure;Samples;Min_cycle;Max_cycle;Signal;HPM_P1;HPM_P2
2021/06/20 00:02:24;;;;;;;18.25;14.02;;;;;;;;;;5093687;28;20579;-89
2021/06/20 00:04:50;;;;;;;16.20;13.80;;;;;;;;;;5092688;28;20392;-89
2021/06/20 00:07:16;;;;;;;17.60;14.27;;;;;;;;;;5092355;28;20779;-89
2021/06/20 00:09:43;;;;;;;15.43;13.60;;;;;;;;;;5093040;28;20380;-88
2021/06/20 00:12:09;;;;;;;16.27;13.40;;;;;;;;;;5092460;28;20363;-87
2021/06/20 00:14:35;;;;;;;17.30;13.38;;;;;;;;;;5092379;28;20427;-86
2021/06/20 00:17:01;;;;;;;14.25;12.75;;;;;;;;;;5092641;28;20766;-87
2021/06/20 00:19:27;;;;;;;18.13;13.75;;;;;;;;;;5092037;28;20444;-89
2021/06/20 00:21:53;;;;;;;16.23;14.10;;;;;;;;;;5091712;28;20441;-91
2021/06/20 00:24:19;;;;;;;16.33;14.07;;;;;;;;;;5090958;28;20369;-88
2021/06/20 00:26:49;;;;;;;15.63;14.07;;;;;;;;;;5091563;28;20478;-89
2021/06/20 00:29:15;;;;;;;17.20;14.55;;;;;;;;;;5093008;28;20373;-88
2021/06/20 00:31:41;;;;;;;16.20;14.15;;;;;;;;;;5091116;28;20413;-88
2021/06/20 00:34:10;;;;;;;15.98;13.93;;;;;;;;;;5091573;28;20879;-89
2021/06/20 00:36:36;;;;;;;18.85;14.18;;;;;;;;;;5092300;28;20372;-89
2021/06/20 00:39:02;;;;;;;17.27;14.20;;;;;;;;;;5095154;28;20371;-88
2021/06/20 00:41:29;;;;;;;18.08;14.80;;;;;;;;;;5091596;28;20376;-89
2021/06/20 00:43:55;;;;;;;16.50;14.77;;;;;;;;;;5096511;28;20388;-89
2021/06/20 00:46:21;;;;;;;17.20;15.23;;;;;;;;;;5092712;28;20368;-88
2021/06/20 00:48:47;;;;;;;16.77;14.98;;;;;;;;;;5094635;28;20731;-87
2021/06/20 00:51:17;;;;;;;17.02;15.32;;;;;;;;;;5093577;28;20365;-89
2021/06/20 00:53:43;;;;;;;18.73;15.85;;;;;;;;;;5092874;28;20425;-87
2021/06/20 00:56:12;;;;;;;17.63;15.73;;;;;;;;;;5091255;28;20718;-90
2021/06/20 00:58:43;;;;;;;20.70;16.85;;;;;;;;;;5091410;28;20379;-90
2021/06/20 01:01:09;;;;;;;20.25;17.13;;;;;;;;;;5090829;28;20373;-87
2021/06/20 01:03:37;;;;;;;18.33;16.57;;;;;;;;;;5091620;28;20410;-88
2021/06/20 01:06:03;;;;;;;17.70;15.97;;;;;;;;;;5091766;28;20499;-88
2021/06/20 01:08:31;;;;;;;20.25;16.80;;;;;;;;;;5091381;28;20786;-88
2021/06/20 01:10:57;;;;;;;20.88;17.92;;;;;;;;;;5092493;28;20764;-87
2021/06/20 01:13:23;;;;;;;20.70;18.60;;;;;;;;;;5093012;28;20399;-88
2021/06/20 01:15:51;;;;;;;27.30;19.05;;;;;;;;;;5091987;28;20372;-90
2021/06/20 01:18:20;;;;;;;21.48;19.25;;;;;;;;;;5091377;28;20379;-89
2021/06/20 01:20:46;;;;;;;22.20;19.80;;;;;;;;;;5093536;28;20438;-87
2021/06/20 01:23:12;;;;;;;21.42;19.33;;;;;;;;;;5091445;28;20854;-88
2021/06/20 01:25:42;;;;;;;24.70;20.85;;;;;;;;;;5090624;28;20726;-88
2021/06/20 01:28:12;;;;;;;23.57;20.03;;;;;;;;;;5091788;28;20365;-88
2021/06/20 01:30:42;;;;;;;22.25;20.05;;;;;;;;;;5090705;28;20369;-88
2021/06/20 01:33:09;;;;;;;22.48;20.05;;;;;;;;;;5090966;28;20372;-89
2021/06/20 01:35:36;;;;;;;23.80;21.33;;;;;;;;;;5090336;28;20368;-87
2021/06/20 01:38:03;;;;;;;24.05;21.80;;;;;;;;;;5092397;28;20360;-88
2021/06/20 01:40:32;;;;;;;23.75;21.23;;;;;;;;;;5090080;28;20488;-87
2021/06/20 01:42:58;;;;;;;24.40;21.40;;;;;;;;;;5091193;28;20412;-89
2021/06/20 01:45:25;;;;;;;24.92;22.02;;;;;;;;;;5101978;28;20377;-86
2021/06/20 01:48:01;;;;;;;24.55;22.02;;;;;;;;;;5108022;28;20450;-88
2021/06/20 01:50:28;;;;;;;25.02;22.63;;;;;;;;;;5105114;28;20373;-86
2021/06/20 01:53:01;;;;;;;25.97;23.53;;;;;;;;;;5090162;28;20810;-87
2021/06/20 01:55:27;;;;;;;24.88;22.33;;;;;;;;;;5091101;28;20376;-88
2021/06/20 01:57:53;;;;;;;24.30;22.08;;;;;;;;;;5090117;28;20462;-88
2021/06/20 02:00:22;;;;;;;26.70;23.70;;;;;;;;;;5090876;28;20365;-89
2021/06/20 02:02:48;;;;;;;25.02;22.40;;;;;;;;;;5090613;28;20384;-88
2021/06/20 02:05:17;;;;;;;25.92;23.25;;;;;;;;;;5090002;28;20372;-88
2021/06/20 02:07:43;;;;;;;23.67;21.17;;;;;;;;;;5089881;28;20429;-86
2021/06/20 02:10:10;;;;;;;22.75;20.45;;;;;;;;;;5089421;28;20365;-87
2021/06/20 02:12:37;;;;;;;24.60;21.93;;;;;;;;;;5089146;28;20365;-85
2021/06/20 02:15:04;;;;;;;24.60;22.10;;;;;;;;;;5089161;28;20750;-85
2021/06/20 02:17:31;;;;;;;22.95;20.88;;;;;;;;;;5089936;28;20451;-85
2021/06/20 02:20:01;;;;;;;23.75;21.45;;;;;;;;;;5091442;28;20396;-85
2021/06/20 02:22:28;;;;;;;22.33;20.02;;;;;;;;;;5088538;28;20446;-85
2021/06/20 02:24:54;;;;;;;22.83;20.60;;;;;;;;;;5088513;28;20417;-85
2021/06/20 02:27:20;;;;;;;23.48;21.27;;;;;;;;;;5088541;28;20364;-85
2021/06/20 02:29:47;;;;;;;22.75;20.60;;;;;;;;;;5088854;28;20375;-85
2021/06/20 02:32:14;;;;;;;23.70;20.67;;;;;;;;;;5089963;28;20375;-85
2021/06/20 02:34:40;;;;;;;22.38;20.33;;;;;;;;;;5088705;28;20459;-85
2021/06/20 02:37:07;;;;;;;23.27;20.95;;;;;;;;;;5088677;28;20754;-86
2021/06/20 02:39:33;;;;;;;23.98;21.48;;;;;;;;;;5088475;28;20715;-85
2021/06/20 02:41:59;;;;;;;24.42;22.10;;;;;;;;;;5088544;28;20400;-85
2021/06/20 02:44:26;;;;;;;24.38;22.00;;;;;;;;;;5088485;28;20368;-84
2021/06/20 02:46:52;;;;;;;23.40;21.13;;;;;;;;;;5088397;28;20365;-85
2021/06/20 02:49:18;;;;;;;23.05;20.52;;;;;;;;;;5093184;28;20379;-86
2021/06/20 02:51:44;;;;;;;22.95;20.77;;;;;;;;;;5092067;28;20364;-86
2021/06/20 02:54:11;;;;;;;24.02;21.70;;;;;;;;;;5092143;28;20368;-85
2021/06/20 02:56:37;;;;;;;23.98;21.67;;;;;;;;;;5093449;28;20399;-85
2021/06/20 02:59:03;;;;;;;23.55;21.15;;;;;;;;;;5093264;28;20476;-85
2021/06/20 03:01:29;;;;;;;22.42;20.38;;;;;;;;;;5091855;28;20398;-85
2021/06/20 03:03:55;;;;;;;23.67;21.50;;;;;;;;;;5091923;28;20391;-86
2021/06/20 03:06:21;;;;;;;22.20;20.00;;;;;;;;;;5092177;28;20376;-85
2021/06/20 03:08:48;;;;;;;21.98;19.88;;;;;;;;;;5091850;28;20379;-85
2021/06/20 03:11:14;;;;;;;22.02;19.92;;;;;;;;;;5092105;28;20451;-85
2021/06/20 03:13:40;;;;;;;22.33;20.33;;;;;;;;;;5092092;28;20808;-84
2021/06/20 03:16:06;;;;;;;22.67;20.35;;;;;;;;;;5092321;28;20778;-85
2021/06/20 03:18:32;;;;;;;22.90;20.70;;;;;;;;;;5092048;28;20379;-84
2021/06/20 03:20:59;;;;;;;23.83;21.45;;;;;;;;;;5091956;28;20435;-84
2021/06/20 03:23:25;;;;;;;23.17;21.02;;;;;;;;;;5091403;28;20486;-85
2021/06/20 03:25:51;;;;;;;22.50;20.40;;;;;;;;;;5093477;28;20357;-84
2021/06/20 03:28:17;;;;;;;24.73;20.93;;;;;;;;;;5091880;28;20858;-84
2021/06/20 03:30:43;;;;;;;21.73;19.83;;;;;;;;;;5091574;28;20361;-84
2021/06/20 03:33:09;;;;;;;23.20;20.98;;;;;;;;;;5092711;28;20361;-84
2021/06/20 03:35:35;;;;;;;24.25;21.65;;;;;;;;;;5091559;28;20361;-85
2021/06/20 03:38:01;;;;;;;22.15;20.15;;;;;;;;;;5091173;28;20372;-85
2021/06/20 03:40:27;;;;;;;21.00;19.20;;;;;;;;;;5091315;28;20365;-85
2021/06/20 03:42:53;;;;;;;22.70;20.50;;;;;;;;;;5091072;28;20475;-85
2021/06/20 03:45:19;;;;;;;25.10;21.60;;;;;;;;;;5091362;28;20455;-85
2021/06/20 03:47:45;;;;;;;21.83;19.65;;;;;;;;;;5091314;28;20357;-85
2021/06/20 03:50:12;;;;;;;22.20;20.17;;;;;;;;;;5091102;28;20380;-85
2021/06/20 03:52:38;;;;;;;23.40;21.20;;;;;;;;;;5090970;28;20372;-86
2021/06/20 03:55:04;;;;;;;23.58;21.08;;;;;;;;;;5091426;28;20391;-85
2021/06/20 03:57:30;;;;;;;24.47;21.93;;;;;;;;;;5091123;28;20375;-86
2021/06/20 03:59:57;;;;;;;21.88;19.98;;;;;;;;;;5091095;28;20364;-87
2021/06/20 04:02:22;;;;;;;22.75;20.65;;;;;;;;;;5091591;28;20388;-86
2021/06/20 04:04:49;;;;;;;24.70;22.30;;;;;;;;;;5091872;28;20395;-85
2021/06/20 04:07:16;;;;;;;25.02;22.42;;;;;;;;;;5093037;28;20737;-85
2021/06/20 04:09:42;;;;;;;23.77;21.30;;;;;;;;;;5092339;28;20384;-86
2021/06/20 04:12:13;;;;;;;23.23;20.92;;;;;;;;;;5093799;28;20464;-86
2021/06/20 04:14:40;;;;;;;22.60;20.33;;;;;;;;;;5091849;28;20392;-85
2021/06/20 04:17:08;;;;;;;24.17;21.80;;;;;;;;;;5094044;28;20845;-88
2021/06/20 04:19:34;;;;;;;23.42;20.92;;;;;;;;;;5092360;28;20703;-86
2021/06/20 04:22:01;;;;;;;22.67;20.35;;;;;;;;;;5091967;28;20396;-86
2021/06/20 04:24:28;;;;;;;22.75;20.30;;;;;;;;;;5092664;28;20407;-86
2021/06/20 04:26:54;;;;;;;23.65;21.30;;;;;;;;;;5094212;28;20364;-87
2021/06/20 04:29:20;;;;;;;22.10;19.80;;;;;;;;;;5091991;28;20456;-88
2021/06/20 04:31:46;;;;;;;21.30;19.45;;;;;;;;;;5092771;28;20430;-86
2021/06/20 04:34:12;;;;;;;22.75;18.80;;;;;;;;;;5091480;28;20408;-86
2021/06/20 04:36:37;;;;;;;21.52;18.58;;;;;;;;;;5090911;28;20369;-86
2021/06/20 04:39:07;;;;;;;20.67;18.88;;;;;;;;;;5092248;28;20397;-87
2021/06/20 04:41:33;;;;;;;20.98;17.58;;;;;;;;;;5091609;28;20422;-87
2021/06/20 04:44:02;;;;;;;19.70;17.70;;;;;;;;;;5092165;28;20380;-86
2021/06/20 04:46:30;;;;;;;21.08;17.88;;;;;;;;;;5091652;28;20369;-86
2021/06/20 04:48:57;;;;;;;19.42;17.63;;;;;;;;;;5091195;28;20780;-85
2021/06/20 04:51:23;;;;;;;18.48;16.75;;;;;;;;;;5091704;28;20360;-89
2021/06/20 04:53:49;;;;;;;20.23;18.02;;;;;;;;;;5092905;28;20373;-89
2021/06/20 04:56:16;;;;;;;18.73;16.92;;;;;;;;;;5092874;28;20455;-87
2021/06/20 04:58:42;;;;;;;17.67;16.08;;;;;;;;;;5091253;28;20400;-86
2021/06/20 05:01:08;;;;;;;20.90;17.35;;;;;;;;;;5091313;28;20897;-88
2021/06/20 05:03:34;;;;;;;17.63;15.90;;;;;;;;;;5092980;28;20730;-88
2021/06/20 05:06:00;;;;;;;18.40;16.50;;;;;;;;;;5090116;28;20404;-87
2021/06/20 05:08:26;;;;;;;18.83;16.98;;;;;;;;;;5091113;28;20907;-87
2021/06/20 05:10:55;;;;;;;17.77;16.02;;;;;;;;;;5090761;28;20361;-88
2021/06/20 05:13:22;;;;;;;16.83;15.23;;;;;;;;;;5091276;28;20372;-88
2021/06/20 05:15:48;;;;;;;28.98;17.13;;;;;;;;;;5089823;28;20376;-88
2021/06/20 05:18:14;;;;;;;19.07;16.53;;;;;;;;;;5091329;28;20437;-88
2021/06/20 05:20:41;;;;;;;27.42;16.77;;;;;;;;;;5090372;28;20399;-90
2021/06/20 05:23:07;;;;;;;17.58;15.60;;;;;;;;;;5098311;28;20424;-87
2021/06/20 05:25:33;;;;;;;20.10;16.00;;;;;;;;;;5106170;28;20373;-88
2021/06/20 05:27:59;;;;;;;18.13;16.20;;;;;;;;;;5106936;28;20432;-88
2021/06/20 05:30:25;;;;;;;17.88;16.02;;;;;;;;;;5092770;28;20373;-89
2021/06/20 05:32:53;;;;;;;52.20;18.83;;;;;;;;;;5091061;28;20380;-87
2021/06/20 05:35:19;;;;;;;30.20;18.17;;;;;;;;;;5090032;28;20387;-86
2021/06/20 05:37:45;;;;;;;18.85;16.42;;;;;;;;;;5091685;28;20372;-87
2021/06/20 05:40:12;;;;;;;19.30;17.15;;;;;;;;;;5091250;28;20723;-88
2021/06/20 05:42:38;;;;;;;17.98;15.50;;;;;;;;;;5091605;28;20420;-87
2021/06/20 05:45:04;;;;;;;17.92;16.23;;;;;;;;;;5089465;28;20445;-87
2021/06/20 05:47:30;;;;;;;17.17;15.65;;;;;;;;;;5089421;28;20406;-87
2021/06/20 05:49:56;;;;;;;16.50;14.93;;;;;;;;;;5089146;28;20418;-87
2021/06/20 05:52:23;;;;;;;17.27;15.57;;;;;;;;;;5091818;28;20364;-88
2021/06/20 05:54:52;;;;;;;16.38;14.88;;;;;;;;;;5091049;28;20401;-88
2021/06/20 05:57:18;;;;;;;20.80;16.48;;;;;;;;;;5091213;28;20367;-88
2021/06/20 05:59:45;;;;;;;450.80;56.17;;;;;;;;;;5090779;28;20372;-89
2021/06/20 06:02:11;;;;;;;20.15;15.02;;;;;;;;;;5090808;28;20392;-87
2021/06/20 06:04:37;;;;;;;18.00;15.50;;;;;;;;;;5091158;28;20363;-88
2021/06/20 06:07:04;;;;;;;16.38;14.63;;;;;;;;;;5090119;28;20369;-88
2021/06/20 06:09:30;;;;;;;16.15;14.57;;;;;;;;;;5089927;28;20788;-89
2021/06/20 06:11:57;;;;;;;15.82;14.15;;;;;;;;;;5090002;28;20367;-88
2021/06/20 06:14:23;;;;;;;15.93;13.07;;;;;;;;;;5089495;28;20876;-86
2021/06/20 06:16:49;;;;;;;15.63;14.02;;;;;;;;;;5090699;28;20412;-88
2021/06/20 06:19:16;;;;;;;14.80;13.13;;;;;;;;;;5090700;28;20392;-89
2021/06/20 06:21:42;;;;;;;15.23;13.23;;;;;;;;;;5091429;28;20450;-88
2021/06/20 06:24:09;;;;;;;16.98;13.00;;;;;;;;;;5095179;28;20471;-89
2021/06/20 06:26:35;;;;;;;15.05;13.63;;;;;;;;;;5096683;28;20368;-88
2021/06/20 06:29:01;;;;;;;16.33;13.30;;;;;;;;;;5095428;28;20390;-88
2021/06/20 06:31:27;;;;;;;15.97;12.97;;;;;;;;;;5094946;28;20734;-88
2021/06/20 06:33:53;;;;;;;15.70;13.85;;;;;;;;;;5094205;28;20372;-90
2021/06/20 06:36:19;;;;;;;15.13;13.65;;;;;;;;;;5094580;28;20376;-88
2021/06/20 06:38:45;;;;;;;15.98;13.73;;;;;;;;;;5094949;28;20368;-90
2021/06/20 06:41:12;;;;;;;15.50;14.00;;;;;;;;;;5096589;28;20379;-89
2021/06/20 06:43:39;;;;;;;27.48;15.20;;;;;;;;;;5094791;28;20392;-90
2021/06/20 06:46:05;;;;;;;17.52;14.18;;;;;;;;;;5094910;28;20469;-88
2021/06/20 06:48:31;;;;;;;16.23;14.30;;;;;;;;;;5095374;28;20438;-89
2021/06/20 06:50:57;;;;;;;17.57;14.67;;;;;;;;;;5094526;28;20790;-89
2021/06/20 06:53:23;;;;;;;15.95;14.25;;;;;;;;;;5094470;28;20414;-89
2021/06/20 06:55:49;;;;;;;16.33;14.50;;;;;;;;;;5094311;28;20377;-90
2021/06/20 06:58:15;;;;;;;15.88;14.27;;;;;;;;;;5093481;28;20492;-88
2021/06/20 07:00:41;;;;;;;24.35;15.18;;;;;;;;;;5093535;28;20866;-88
2021/06/20 07:03:07;;;;;;;15.50;13.85;;;;;;;;;;5093919;28;20416;-89
2021/06/20 07:05:36;;;;;;;16.23;14.43;;;;;;;;;;5093696;28;20396;-89
2021/06/20 07:08:02;;;;;;;16.05;14.05;;;;;;;;;;5093948;28;20356;-91
2021/06/20 07:10:28;;;;;;;15.88;13.63;;;;;;;;;;5093794;28;20384;-91
2021/06/20 07:12:54;;;;;;;14.67;12.73;;;;;;;;;;5093671;28;20373;-89
2021/06/20 07:15:20;;;;;;;15.60;13.40;;;;;;;;;;5094040;28;20373;-89
2021/06/20 07:17:46;;;;;;;16.88;13.65;;;;;;;;;;5092546;28;20368;-89
2021/06/20 07:20:15;;;;;;;13.63;12.32;;;;;;;;;;5093318;28;20369;-91
2021/06/20 07:22:41;;;;;;;14.73;12.30;;;;;;;;;;5093162;28;20388;-91
2021/06/20 07:25:07;;;;;;;27.03;13.80;;;;;;;;;;5093880;28;20368;-90
2021/06/20 07:27:35;;;;;;;18.25;13.77;;;;;;;;;;5093511;28;20461;-89
2021/06/20 07:30:04;;;;;;;17.63;12.32;;;;;;;;;;5094454;28;20392;-90
2021/06/20 07:32:30;;;;;;;28.42;13.60;;;;;;;;;;5093907;28;20392;-92
2021/06/20 07:34:56;;;;;;;22.80;13.10;;;;;;;;;;5091903;28;20457;-91
2021/06/20 07:37:22;;;;;;;16.67;12.90;;;;;;;;;;5094276;28;20455;-92
2021/06/20 07:39:48;;;;;;;13.27;11.97;;;;;;;;;;5092742;28;20388;-90
2021/06/20 07:42:14;;;;;;;15.07;13.20;;;;;;;;;;5085963;28;20388;-91
2021/06/20 07:44:40;;;;;;;20.42;12.93;;;;;;;;;;5094137;28;20830;-89
2021/06/20 07:47:06;;;;;;;14.77;12.30;;;;;;;;;;5093966;28;20369;-91
2021/06/20 07:49:32;;;;;;;16.55;12.00;;;;;;;;;;5093717;28;20471;-90
2021/06/20 07:51:58;;;;;;;18.20;11.90;;;;;;;;;;5093592;28;20734;-91
2021/06/20 07:54:25;;;;;;;16.02;11.57;;;;;;;;;;5092441;28;20383;-91
2021/06/20 07:56:51;;;;;;;13.40;11.60;;;;;;;;;;5094262;28;20947;-91
2021/06/20 07:59:18;;;;;;;16.63;11.93;;;;;;;;;;5094359;28;20646;-91
2021/06/20 08:01:44;;;;;;;16.00;11.50;;;;;;;;;;5091851;28;20364;-90
2021/06/20 08:04:10;;;;;;;31.13;13.40;;;;;;;;;;5093452;28;20484;-91
2021/06/20 08:06:36;;;;;;;12.93;11.57;;;;;;;;;;5094419;28;20356;-90
2021/06/20 08:09:02;;;;;;;13.77;11.83;;;;;;;;;;5101115;28;20376;-92
2021/06/20 08:11:28;;;;;;;17.58;12.32;;;;;;;;;;5108944;28;20508;-90
2021/06/20 08:13:57;;;;;;;15.45;11.57;;;;;;;;;;5100115;28;20383;-91
2021/06/20 08:16:23;;;;;;;15.65;12.55;;;;;;;;;;5092118;28;20387;-90
2021/06/20 08:18:49;;;;;;;13.00;11.60;;;;;;;;;;5091644;28;20925;-91
2021/06/20 08:21:15;;;;;;;15.13;11.82;;;;;;;;;;5091744;28;20368;-89
2021/06/20 08:23:41;;;;;;;13.05;11.70;;;;;;;;;;5091468;28;20388;-91
2021/06/20 08:26:07;;;;;;;16.23;12.10;;;;;;;;;;5091605;28;20365;-92
2021/06/20 08:28:43;;;;;;;13.60;11.85;;;;;;;;;;5091954;28;20447;-90
2021/06/20 08:31:09;;;;;;;15.57;12.40;;;;;;;;;;5091735;28;20364;-88
2021/06/20 08:33:35;;;;;;;15.85;12.52;;;;;;;;;;5091840;28;20404;-89
2021/06/20 08:36:01;;;;;;;15.93;12.55;;;;;;;;;;5085768;28;20370;-91
2021/06/20 08:38:33;;;;;;;13.98;12.48;;;;;;;;;;5084846;28;20375;-89
2021/06/20 08:40:59;;;;;;;14.40;12.13;;;;;;;;;;5082704;28;20465;-87
2021/06/20 08:43:25;;;;;;;14.50;12.57;;;;;;;;;;5080045;28;20416;-91
2021/06/20 08:45:52;;;;;;;12.80;11.07;;;;;;;;;;5083422;28;20374;-89
2021/06/20 08:48:18;;;;;;;13.75;12.00;;;;;;;;;;5078409;28;20421;-89
2021/06/20 08:50:44;;;;;;;15.57;12.35;;;;;;;;;;5072160;28;20373;-90
2021/06/20 08:53:15;;;;;;;14.03;12.03;;;;;;;;;;5083335;28;20362;-90
2021/06/20 08:55:42;;;;;;;13.68;12.18;;;;;;;;;;5082043;28;20378;-89
2021/06/20 08:58:20;;;;;;;16.00;12.80;;;;;;;;;;5086788;28;20366;-90
2021/06/20 09:00:47;;;;;;;21.35;12.93;;;;;;;;;;5081977;28;20374;-89
2021/06/20 09:03:16;;;;;;;16.60;12.43;;;;;;;;;;5077616;28;20408;-93
2021/06/20 09:06:02;;;;;;;13.75;12.25;;;;;;;;;;5071538;28;20367;-91
2021/06/20 09:08:29;;;;;;;14.30;12.60;;;;;;;;;;5071800;28;20378;-91
2021/06/20 09:10:56;;;;;;;14.23;12.82;;;;;;;;;;5072289;28;20378;-90
2021/06/20 09:13:22;;;;;;;13.95;12.52;;;;;;;;;;5072122;28;20402;-92
2021/06/20 09:15:59;;;;;;;14.25;12.82;;;;;;;;;;5072042;28;20373;-91
2021/06/20 09:18:25;;;;;;;15.00;12.52;;;;;;;;;;5072079;28;20940;-91
2021/06/20 09:20:52;;;;;;;16.47;13.33;;;;;;;;;;5072204;28;20468;-93
2021/06/20 09:23:18;;;;;;;15.30;13.73;;;;;;;;;;5071869;28;20397;-94
2021/06/20 09:25:46;;;;;;;14.38;12.85;;;;;;;;;;5054210;28;21542;-91
2021/06/20 09:28:13;;;;;;;15.15;13.50;;;;;;;;;;5082149;28;20377;-89
2021/06/20 09:30:45;;;;;;;14.77;13.27;;;;;;;;;;5093047;28;20883;-91
2021/06/20 09:33:12;;;;;;;15.90;12.88;;;;;;;;;;5091422;28;20404;-92
2021/06/20 09:35:58;;;;;;;17.25;13.60;;;;;;;;;;5072051;28;20370;-91
2021/06/20 09:38:39;;;;;;;17.35;12.55;;;;;;;;;;5072090;28;20373;-91
2021/06/20 09:41:05;;;;;;;15.98;10.38;;;;;;;;;;5079396;28;20379;-88
2021/06/20 09:43:35;;;;;;;12.60;10.07;;;;;;;;;;5079785;28;20862;-90
2021/06/20 09:46:02;;;;;;;13.87;10.60;;;;;;;;;;5084087;28;20380;-90
2021/06/20 09:48:31;;;;;;;14.70;9.90;;;;;;;;;;5080983;28;20453;-88
2021/06/20 09:50:59;;;;;;;18.05;10.80;;;;;;;;;;5080415;28;20522;-89
2021/06/20 09:53:34;;;;;;;13.73;10.30;;;;;;;;;;5081511;28;20400;-86
2021/06/20 09:56:14;;;;;;;20.53;10.17;;;;;;;;;;5081312;28;20370;-88
2021/06/20 10:01:38;;;;;;;15.27;11.63;;;;;;;;;;5080342;28;20368;-89
2021/06/20 10:04:04;;;;;;;13.57;10.77;;;;;;;;;;5082201;28;20400;-88
2021/06/20 10:06:30;;;;;;;14.95;10.90;;;;;;;;;;5080401;28;20393;-90
2021/06/20 10:08:57;;;;;;;16.25;11.02;;;;;;;;;;5079605;28;20440;-90
2021/06/20 10:11:23;;;;;;;15.32;11.07;;;;;;;;;;5079786;28;20395;-89
2021/06/20 10:13:55;;;;;;;14.90;10.82;;;;;;;;;;5079740;28;20366;-91
2021/06/20 10:16:23;;;;;;;13.05;11.57;;;;;;;;;;5080232;28;20400;-89
2021/06/20 10:19:10;;;;;;;14.27;11.38;;;;;;;;;;5082165;28;20360;-88
2021/06/20 10:21:38;;;;;;;12.43;11.13;;;;;;;;;;5080148;28;20373;-92
2021/06/20 10:24:08;;;;;;;13.30;11.40;;;;;;;;;;5081621;28;20405;-90
2021/06/20 10:26:37;;;;;;;12.05;10.75;;;;;;;;;;5081059;28;20382;-90
2021/06/20 10:29:15;;;;;;;13.95;10.63;;;;;;;;;;5080980;28;20368;-89
2021/06/20 10:31:43;;;;;;;15.73;10.32;;;;;;;;;;5077961;28;20877;-90
2021/06/20 10:34:29;;;;;;;17.33;10.32;;;;;;;;;;5080141;28;20397;-89
2021/06/20 10:36:57;;;;;;;15.07;10.70;;;;;;;;;;5080202;28;20366;-90
2021/06/20 10:39:24;;;;;;;17.67;10.50;;;;;;;;;;5077088;28;20429;-87
2021/06/20 10:42:02;;;;;;;17.58;10.60;;;;;;;;;;5074367;28;20700;-88
2021/06/20 10:45:00;;;;;;;14.75;10.18;;;;;;;;;;5079326;28;20420;-89
2021/06/20 10:47:52;;;;;;;14.30;8.77;;;;;;;;;;5009005;28;20893;-90
2021/06/20 10:50:18;;;;;;;17.35;9.90;;;;;;;;;;5036896;28;20388;-89
2021/06/20 10:52:58;;;;;;;13.88;9.32;;;;;;;;;;5079744;28;20385;-91
2021/06/20 10:55:24;;;;;;;15.23;10.23;;;;;;;;;;5080327;28;20851;-88
2021/06/20 10:58:01;;;;;;;15.82;9.77;;;;;;;;;;5078088;28;20407;-90
2021/06/20 11:00:37;;;;;;;15.55;10.23;;;;;;;;;;5080658;28;20448;-93
2021/06/20 11:03:07;;;;;;;19.07;9.87;;;;;;;;;;5082166;28;20480;-90
2021/06/20 11:05:42;;;;;;;18.23;9.18;;;;;;;;;;5078134;28;20406;-91
2021/06/20 11:08:10;;;;;;;16.73;9.00;;;;;;;;;;5079326;28;20382;-90
2021/06/20 11:10:37;;;;;;;19.58;9.60;;;;;;;;;;5082820;28;20375;-91
2021/06/20 11:13:03;;;;;;;15.77;9.20;;;;;;;;;;5082425;28;20386;-92
2021/06/20 11:15:30;;;;;;;16.98;8.90;;;;;;;;;;5081754;28;20381;-93
2021/06/20 11:18:10;;;;;;;18.00;9.43;;;;;;;;;;5082112;28;20384;-89
2021/06/20 11:20:37;;;;;;;18.97;8.43;;;;;;;;;;5084226;28;20374;-90
2021/06/20 11:23:04;;;;;;;14.07;8.43;;;;;;;;;;5084382;28;20404;-91
2021/06/20 11:25:33;;;;;;;16.70;8.80;;;;;;;;;;5082578;28;20376;-91
2021/06/20 11:28:01;;;;;;;18.00;8.25;;;;;;;;;;5083997;28;20374;-90
2021/06/20 11:30:27;;;;;;;16.52;8.50;;;;;;;;;;5092393;28;20884;-92
2021/06/20 11:32:53;;;;;;;15.50;8.45;;;;;;;;;;5093271;28;20491;-87
2021/06/20 11:35:20;;;;;;;15.57;9.02;;;;;;;;;;5093719;28;20404;-88
2021/06/20 11:37:46;;;;;;;16.70;8.60;;;;;;;;;;5093872;28;20845;-92
2021/06/20 11:40:18;;;;;;;13.65;9.20;;;;;;;;;;5093940;28;20459;-91
2021/06/20 11:42:46;;;;;;;17.77;8.88;;;;;;;;;;5093228;28;20801;-88
2021/06/20 11:45:19;;;;;;;15.25;9.18;;;;;;;;;;5093698;28;20483;-89
2021/06/20 11:47:53;;;;;;;15.37;9.30;;;;;;;;;;5094259;28;20404;-89
2021/06/20 11:50:24;;;;;;;17.85;9.30;;;;;;;;;;5093341;28;20392;-91
2021/06/20 11:52:57;;;;;;;12.93;9.02;;;;;;;;;;5087953;28;20377;-90
2021/06/20 11:55:24;;;;;;;18.50;10.50;;;;;;;;;;5084409;28;20386;-90
2021/06/20 11:57:51;;;;;;;15.10;8.55;;;;;;;;;;5073176;28;20500;-90
2021/06/20 12:00:18;;;;;;;16.23;8.18;;;;;;;;;;5089124;28;20818;-89
2021/06/20 12:03:04;;;;;;;14.63;8.32;;;;;;;;;;5093420;28;20873;-91
2021/06/20 12:05:34;;;;;;;16.63;8.80;;;;;;;;;;5086858;28;20465;-91
2021/06/20 12:08:04;;;;;;;18.52;8.63;;;;;;;;;;5083675;28;20375;-90
2021/06/20 12:10:31;;;;;;;18.83;8.15;;;;;;;;;;5077878;28;20363;-90
2021/06/20 12:12:59;;;;;;;14.53;8.57;;;;;;;;;;5083248;28;20377;-91
2021/06/20 12:15:25;;;;;;;16.00;7.93;;;;;;;;;;5084874;28;20421;-88
2021/06/20 12:17:54;;;;;;;14.02;8.77;;;;;;;;;;5085345;28;20380;-87
2021/06/20 12:20:29;;;;;;;15.60;8.60;;;;;;;;;;5081283;28;20787;-90
2021/06/20 12:22:59;;;;;;;12.85;7.72;;;;;;;;;;5081361;28;20385;-90
2021/06/20 12:25:34;;;;;;;13.88;8.00;;;;;;;;;;5082715;28;20373;-89
2021/06/20 12:28:09;;;;;;;12.48;7.78;;;;;;;;;;5083589;28;20749;-90
2021/06/20 12:30:59;;;;;;;13.30;7.65;;;;;;;;;;5082571;28;20464;-91
2021/06/20 12:33:27;;;;;;;13.93;7.32;;;;;;;;;;5083132;28;20474;-92
2021/06/20 12:39:51;;;;;;;12.20;7.47;;;;;;;;;;5038632;28;20371;-91
2021/06/20 12:42:26;;;;;;;17.20;7.55;;;;;;;;;;4988328;28;20487;-91
2021/06/20 12:44:54;;;;;;;13.10;7.30;;;;;;;;;;5005036;28;20425;-88
2021/06/20 12:47:33;;;;;;;12.85;6.60;;;;;;;;;;5026927;28;20384;-89
2021/06/20 12:50:00;;;;;;;12.63;6.75;;;;;;;;;;5084877;28;20376;-93
2021/06/20 12:52:29;;;;;;;15.57;7.47;;;;;;;;;;5088840;28;20389;-90
2021/06/20 12:54:59;;;;;;;9.90;7.07;;;;;;;;;;5077709;28;20409;-91
2021/06/20 12:57:32;;;;;;;15.40;7.10;;;;;;;;;;5077375;28;20385;-89
2021/06/20 13:00:11;;;;;;;13.57;7.22;;;;;;;;;;5083631;28;20372;-92
2021/06/20 13:02:37;;;;;;;13.27;7.25;;;;;;;;;;5084446;28;20403;-90
2021/06/20 13:05:13;;;;;;;14.35;7.30;;;;;;;;;;5093434;28;20798;-92
2021/06/20 13:07:41;;;;;;;11.05;7.45;;;;;;;;;;5091294;28;20433;-91
2021/06/20 13:10:13;;;;;;;11.85;6.93;;;;;;;;;;5092075;28;20356;-91
2021/06/20 13:12:39;;;;;;;12.18;7.30;;;;;;;;;;5093399;28;20830;-90
2021/06/20 13:15:12;;;;;;;8.50;7.03;;;;;;;;;;5091681;28;20369;-90
2021/06/20 13:17:42;;;;;;;14.37;7.20;;;;;;;;;;5091740;28;20373;-91
2021/06/20 13:20:11;;;;;;;11.15;6.60;;;;;;;;;;5092568;28;20888;-90
2021/06/20 13:22:37;;;;;;;11.13;5.90;;;;;;;;;;5092225;28;20400;-89
2021/06/20 13:25:04;;;;;;;11.77;6.20;;;;;;;;;;5091441;28;20365;-91
2021/06/20 13:27:30;;;;;;;9.67;6.07;;;;;;;;;;5091626;28;20360;-88
2021/06/20 13:29:56;;;;;;;15.05;6.38;;;;;;;;;;5092073;28;20365;-90
2021/06/20 13:32:22;;;;;;;10.97;6.60;;;;;;;;;;5091529;28;20396;-89
2021/06/20 13:34:50;;;;;;;13.32;6.30;;;;;;;;;;5092158;28;20372;-91
2021/06/20 13:37:16;;;;;;;8.93;6.10;;;;;;;;;;5091833;28;20380;-90
2021/06/20 13:39:44;;;;;;;12.40;6.15;;;;;;;;;;5091405;28;20368;-89
2021/06/20 13:42:11;;;;;;;9.70;6.10;;;;;;;;;;5091662;28;20422;-92
2021/06/20 13:44:37;;;;;;;10.13;6.03;;;;;;;;;;5091942;28;20361;-90
2021/06/20 13:47:03;;;;;;;8.60;5.57;;;;;;;;;;5091678;28;20954;-93
2021/06/20 13:49:32;;;;;;;8.77;5.80;;;;;;;;;;5092218;28;20858;-93
2021/06/20 13:51:58;;;;;;;8.43;5.30;;;;;;;;;;5091177;28;20469;-91
2021/06/20 13:54:24;;;;;;;9.43;5.50;;;;;;;;;;5091940;28;20870;-88
2021/06/20 13:56:51;;;;;;;8.33;5.37;;;;;;;;;;5090668;28;20475;-89
2021/06/20 13:59:21;;;;;;;9.47;5.53;;;;;;;;;;5091877;28;20372;-90
2021/06/20 14:01:48;;;;;;;9.48;5.47;;;;;;;;;;5091225;28;20383;-90
2021/06/20 14:04:14;;;;;;;10.50;5.78;;;;;;;;;;5091033;28;20398;-91
2021/06/20 14:06:40;;;;;;;16.23;6.40;;;;;;;;;;5090612;28;20368;-89
2021/06/20 14:09:09;;;;;;;11.10;5.25;;;;;;;;;;5083504;28;20374;-93
2021/06/20 14:11:35;;;;;;;8.63;5.50;;;;;;;;;;5081522;28;20359;-90
2021/06/20 14:14:02;;;;;;;9.40;5.40;;;;;;;;;;5074861;28;20378;-92
2021/06/20 14:16:28;;;;;;;11.32;5.40;;;;;;;;;;5080265;28;20376;-92
2021/06/20 14:19:01;;;;;;;10.02;5.45;;;;;;;;;;5079998;28;20366;-90
2021/06/20 14:21:27;;;;;;;10.48;5.63;;;;;;;;;;5080842;28;20366;-91
2021/06/20 14:23:54;;;;;;;11.00;5.67;;;;;;;;;;5080033;28;20439;-90
2021/06/20 14:26:20;;;;;;;9.45;5.03;;;;;;;;;;5078401;28;20369;-85
2021/06/20 14:28:48;;;;;;;12.70;5.43;;;;;;;;;;5076857;28;20383;-90
2021/06/20 14:31:14;;;;;;;10.83;5.50;;;;;;;;;;5078911;28;20378;-92
2021/06/20 14:33:40;;;;;;;11.93;5.30;;;;;;;;;;5084341;28;20369;-89